createdAt,value
2023-05-25T00:03:20.619Z,17.45
2023-05-25T00:13:29.731Z,16.90
2023-05-25T00:23:35.763Z,15.68
2023-05-25T00:33:40.793Z,17.33
2023-05-25T00:43:47.286Z,17.27
2023-05-25T00:53:52.060Z,19.05
2023-05-25T01:03:58.028Z,18.95
2023-05-25T01:14:08.702Z,18.48
2023-05-25T01:24:33.573Z,21.70
2023-05-25T01:34:40.909Z,22.35
2023-05-25T01:44:43.630Z,22.85
2023-05-25T01:55:01.174Z,24.17
2023-05-25T02:05:07.319Z,24.38
2023-05-25T02:15:20.876Z,22.85
2023-05-25T02:25:27.856Z,22.38
2023-05-25T02:35:30.572Z,22.30
2023-05-25T02:45:35.985Z,23.08
2023-05-25T02:55:41.663Z,20.08
2023-05-25T03:05:48.887Z,21.92
2023-05-25T03:15:52.802Z,21.70
2023-05-25T03:26:01.268Z,21.17
2023-05-25T03:36:09.373Z,20.63
2023-05-25T03:46:18.646Z,21.52
2023-05-25T03:56:21.729Z,21.27
2023-05-25T04:06:35.198Z,21.70
2023-05-25T04:16:39.985Z,20.85
2023-05-25T04:26:47.113Z,20.42
2023-05-25T04:36:53.492Z,20.85
2023-05-25T04:47:01.578Z,20.05
2023-05-25T04:57:10.637Z,21.08
2023-05-25T05:07:15.054Z,22.55
2023-05-25T05:17:20.716Z,19.85
2023-05-25T05:27:23.224Z,21.63
2023-05-25T05:37:32.258Z,21.95
2023-05-25T05:47:37.502Z,21.33
2023-05-25T05:57:42.243Z,21.05
2023-05-25T06:07:56.427Z,29.38
2023-05-25T06:18:00.512Z,20.02
2023-05-25T06:28:06.248Z,20.98
2023-05-25T06:38:08.653Z,19.70
2023-05-25T06:48:13.572Z,19.67
2023-05-25T06:58:21.671Z,19.30
2023-05-25T07:08:30.300Z,18.92
2023-05-25T07:18:32.787Z,19.05
2023-05-25T07:28:41.179Z,19.33
2023-05-25T07:38:50.926Z,20.60
2023-05-25T07:49:00.045Z,20.92
2023-05-25T07:59:06.067Z,18.25
2023-05-25T08:09:08.692Z,19.33
2023-05-25T08:19:11.140Z,17.70
2023-05-25T08:29:13.864Z,17.20
2023-05-25T08:39:19.238Z,19.05
2023-05-25T08:49:22.953Z,17.13
2023-05-25T09:00:01.083Z,15.93
2023-05-25T09:10:05.911Z,14.88
2023-05-25T09:20:11.530Z,17.92
2023-05-25T09:30:13.956Z,16.25
2023-05-25T09:40:18.513Z,16.83
2023-05-25T09:50:21.613Z,18.70
2023-05-25T10:00:25.133Z,18.27
2023-05-25T10:10:27.635Z,17.60
2023-05-25T10:20:35.342Z,17.83
2023-05-25T10:30:42.038Z,16.77
2023-05-25T10:40:51.625Z,16.75
2023-05-25T10:50:54.382Z,14.18
2023-05-25T11:01:12.942Z,15.70
2023-05-25T11:11:20.380Z,14.95
2023-05-25T11:21:29.236Z,16.05
2023-05-25T11:31:38.355Z,14.48
2023-05-25T11:41:51.788Z,14.57
2023-05-25T11:51:59.775Z,12.45
2023-05-25T12:02:03.447Z,11.55
2023-05-25T12:12:11.874Z,12.35
2023-05-25T12:22:17.774Z,11.75
2023-05-25T12:32:22.362Z,13.43
2023-05-25T12:42:32.550Z,12.32
2023-05-25T12:52:45.515Z,11.57
2023-05-25T13:02:50.771Z,10.85
2023-05-25T13:12:58.786Z,10.52
2023-05-25T13:23:04.338Z,9.52
2023-05-25T13:33:06.609Z,9.43
2023-05-25T13:43:08.983Z,9.65
2023-05-25T13:53:13.129Z,8.60
2023-05-25T14:03:19.216Z,9.25
2023-05-25T14:13:24.587Z,8.70
2023-05-25T14:23:28.741Z,10.15
2023-05-25T14:33:33.307Z,10.27
2023-05-25T14:43:35.954Z,9.85
2023-05-25T14:53:40.291Z,10.23
2023-05-25T15:03:45.247Z,9.73
2023-05-25T15:13:50.319Z,8.80
2023-05-25T15:23:52.672Z,8.90
2023-05-25T15:34:02.426Z,9.02
2023-05-25T15:44:09.060Z,8.77
2023-05-25T15:54:14.670Z,9.10
2023-05-25T16:04:24.237Z,8.20
2023-05-25T16:14:29.352Z,9.15
2023-05-25T16:24:36.425Z,9.55
2023-05-25T16:34:38.970Z,8.23
2023-05-25T16:44:46.007Z,9.07
2023-05-25T16:54:52.113Z,9.00
2023-05-25T17:04:55.184Z,9.40
2023-05-25T17:15:01.823Z,9.07
2023-05-25T17:25:09.258Z,9.20
2023-05-25T17:35:19.875Z,9.52
2023-05-25T17:45:24.290Z,8.90
2023-05-25T17:55:29.476Z,8.63
2023-05-25T18:05:34.414Z,8.55
2023-05-25T18:15:39.757Z,9.13
2023-05-25T18:25:46.134Z,8.73
2023-05-25T18:35:54.606Z,8.48
2023-05-25T18:46:01.908Z,8.82
2023-05-25T18:56:04.319Z,9.05
2023-05-25T19:06:08.249Z,9.95
2023-05-25T19:16:14.255Z,10.43
2023-05-25T19:26:22.030Z,9.30
2023-05-25T19:36:27.416Z,10.57
2023-05-25T19:46:30.256Z,10.02
2023-05-25T19:56:35.318Z,9.82
2023-05-25T20:06:39.757Z,11.93
2023-05-25T20:16:42.122Z,11.93
2023-05-25T20:26:44.969Z,10.68
2023-05-25T20:36:48.716Z,10.85
2023-05-25T20:46:54.190Z,11.20
2023-05-25T20:57:04.051Z,16.75
2023-05-25T21:07:08.680Z,12.85
2023-05-25T21:17:18.025Z,11.18
2023-05-25T21:27:27.006Z,9.77
2023-05-25T21:37:32.596Z,9.23
2023-05-25T21:47:43.297Z,9.52
2023-05-25T21:57:49.919Z,8.82
2023-05-25T22:07:54.265Z,9.77
2023-05-25T22:18:02.360Z,7.43
2023-05-25T22:28:04.653Z,8.32
2023-05-25T22:38:08.711Z,8.68
2023-05-25T22:48:17.305Z,7.85
2023-05-25T22:58:22.332Z,9.25
2023-05-25T23:08:27.310Z,9.52
2023-05-25T23:18:31.038Z,8.75
2023-05-25T23:28:37.611Z,8.32
2023-05-25T23:38:44.121Z,6.65
2023-05-25T23:48:47.569Z,5.55
2023-05-25T23:58:57.467Z,6.80
